Flight Track Log - Related Links

Times and Time Zones

All times are in EDT time to prevent confusion due to time zone crossing. See the N55NG flight status page for this flight to view local times or setup timezone preferences in your user account.

Time Position Orientation Groundspeed Altitude Reporting Facility
EDT Latitude Longitude Course Direction KTS MPH feet Rate Location/Type
Thu 12:13:53 PM 36.6533 -82.0619 89° East 209 241 4,100  Level Atlanta Center
Thu 12:14:53 PM 36.6544 -81.9969 89° East 214 246 7,500 2,950 Climbing Atlanta Center
Thu 12:15:53 PM 36.6969 -81.9261 53° Northeast 189 217 10,000 1,450 Climbing Atlanta Center
Thu 12:16:53 PM 36.7497 -81.8367 54° Northeast 315 362 10,400 1,200 Climbing Atlanta Center
Thu 12:17:53 PM 36.8064 -81.7444 52° Northeast 328 377 12,400 2,000 Climbing Atlanta Center
Thu 12:18:53 PM 36.8631 -81.6519 53° Northeast 333 383 14,400 2,000 Climbing Atlanta Center
Thu 12:19:53 PM 36.9214 -81.5542 53° Northeast 333 383 16,400 1,800 Climbing Atlanta Center
Thu 12:20:53 PM 36.9758 -81.4561 55° Northeast 340 391 18,000 1,818 Climbing Atlanta Center
Thu 12:23:11 PM 37.1111 -81.2364 52° Northeast 357 411 22,400 1,980 Climbing Indianapolis Center
Thu 12:24:13 PM 37.1783 -81.1236 53° Northeast 366 421 24,600 1,984 Climbing Indianapolis Center
Thu 12:25:15 PM 37.2389 -81.0239 53° Northeast 369 425 26,500 1,887 Climbing Indianapolis Center
Thu 12:26:17 PM 37.2989 -80.9219 53° Northeast 372 428 28,500 2,081 Climbing Indianapolis Center
Thu 12:27:19 PM 37.3700 -80.7994 54° Northeast 371 427 30,800 1,979 Climbing Indianapolis Center
Thu 12:27:51 PM 37.3944 -80.7550 55° Northeast 364 419 31,600 1,645 Climbing Washington Center
Thu 12:28:21 PM 37.4300 -80.6975 52° Northeast 371 427 32,500 1,565 Climbing Indianapolis Center
Thu 12:29:23 PM 37.4911 -80.5944 53° Northeast 374 430 34,000 1,597 Climbing Indianapolis Center
Thu 12:30:25 PM 37.5392 -80.4553 66° East 372 428 35,800 1,548 Climbing Indianapolis Center
Thu 12:31:27 PM 37.5642 -80.3308 76° East 375 432 37,200 1,113 Climbing Indianapolis Center
Thu 12:32:29 PM 37.5919 -80.2061 74° East 379 436 38,100 823 Climbing Indianapolis Center
Thu 12:33:31 PM 37.6192 -80.0758 75° East 390 449 38,900 726 Climbing Indianapolis Center
Thu 12:34:33 PM 37.6542 -79.9161 74° East 402 463 39,600 581 Climbing Indianapolis Center
Thu 12:35:35 PM 37.6842 -79.7789 75° East 411 473 40,100 484 Climbing Indianapolis Center
Thu 12:36:37 PM 37.7142 -79.6347 75° East 425 489 40,600 435 Climbing Indianapolis Center
Thu 12:37:39 PM 37.7453 -79.4892 75° East 433 498 41,000 176 Climbing Indianapolis Center
Thu 12:38:53 PM 37.7886 -79.2997 74° East 435 501 41,000  Level Washington Center
Thu 12:39:50 PM 37.8206 -79.1356 76° East 440 506 41,000  Level Washington Center
Thu 12:40:52 PM 37.8519 -78.9872 75° East 440 506 41,000  Level Washington Center
Thu 12:41:52 PM 37.8811 -78.8411 76° East 440 506 41,000  Level Washington Center
Thu 12:42:53 PM 37.9100 -78.6922 76° East 429 494 41,000  Level Washington Center
Thu 12:43:53 PM 37.9408 -78.5461 75° East 429 494 41,000  Level Washington Center
Thu 12:44:51 PM 37.9669 -78.4128 76° East 429 494 41,000  Level Washington Center
Thu 12:45:51 PM 37.9953 -78.2664 76° East 429 494 41,000  Level Washington Center
Thu 12:46:52 PM 38.0256 -78.1278 74° East 429 494 41,000  Level Washington Center
Thu 12:47:53 PM 38.0908 -77.9981 57° Northeast 417 480 41,000  Level Washington Center
Thu 12:48:53 PM 38.1539 -77.8681 58° Northeast 417 480 41,000  Level Washington Center
Thu 12:49:51 PM 38.2186 -77.7403 57° Northeast 430 495 41,000  Level Washington Center
Thu 12:50:52 PM 38.2836 -77.6100 58° Northeast 430 495 41,000  Level Washington Center
Thu 12:51:52 PM 38.3481 -77.4794 58° Northeast 430 495 41,000  Level Washington Center
Thu 12:52:53 PM 38.4192 -77.3300 59° Northeast 435 501 41,000  Level Washington Center
Thu 12:53:53 PM 38.4836 -77.1989 58° Northeast 435 501 41,000  Level Washington Center
Thu 12:54:51 PM 38.5478 -77.0678 58° Northeast 435 501 41,000  Level Washington Center
Thu 12:55:51 PM 38.6119 -76.9333 59° Northeast 435 501 41,000  Level Washington Center
Thu 12:56:51 PM 38.6781 -76.8042 57° Northeast 435 501 41,000  Level Washington Center
Thu 12:57:52 PM 38.7397 -76.6697 60° Northeast 447 514 41,000  Level Washington Center
Thu 12:58:53 PM 38.7972 -76.5319 62° Northeast 442 509 41,000  Level Washington Center
Thu 12:59:53 PM 38.8586 -76.3914 61° Northeast 436 502 41,000  Level Washington Center
Thu 01:00:51 PM 38.9156 -76.2558 62° Northeast 436 502 41,000  Level Washington Center
Thu 01:01:52 PM 38.9850 -76.1444 51° Northeast 436 502 41,000  Level Washington Center
Thu 01:02:52 PM 39.0731 -76.0356 44° Northeast 436 502 41,000  Level Washington Center
Thu 01:03:53 PM 39.1589 -75.9236 45° Northeast 431 496 41,000 -353 Level Washington Center
Thu 01:04:51 PM 39.2467 -75.8167 43° Northeast 431 496 40,300 -857 Descending Washington Center
Thu 01:05:52 PM 39.3342 -75.7017 45° Northeast 431 496 39,300 -984 Descending Washington Center
Thu 01:06:53 PM 39.4197 -75.5861 46° Northeast 431 496 38,300 -992 Descending Washington Center
Thu 01:07:53 PM 39.5092 -75.4733 44° Northeast 431 496 37,300 -1,017 Descending Washington Center
Thu 01:08:51 PM 39.5986 -75.3544 46° Northeast 437 503 36,300 -775 Descending Washington Center
Thu 01:10:51 PM 39.7797 -75.1008 47° Northeast 464 534 35,000 -433 Descending New York Center
Thu 01:11:51 PM 39.8656 -74.9792 47° Northeast 459 528 35,000  Level New York Center
Thu 01:12:51 PM 39.9467 -74.8622 48° Northeast 452 520 35,000  Level New York Center
Thu 01:13:51 PM 40.0364 -74.7428 46° Northeast 452 520 35,000  Level New York Center
Thu 01:14:51 PM 40.1236 -74.6200 47° Northeast 452 520 35,000  Level New York Center
Thu 01:15:51 PM 40.2047 -74.4969 49° Northeast 452 520 35,000 -550 Level New York Center
Thu 01:16:51 PM 40.3019 -74.3906 40° Northeast 452 520 33,900 -1,150 Descending New York Center
Thu 01:17:51 PM 40.3989 -74.2839 40° Northeast 446 513 32,700 -1,200 Descending New York Center
Thu 01:18:51 PM 40.4653 -74.1483 57° Northeast 446 513 31,500 -1,500 Descending New York Center
Thu 01:19:51 PM 40.5217 -74.0008 63° Northeast 439 505 29,700 -1,900 Descending New York Center
Thu 01:20:51 PM 40.5797 -73.8533 63° Northeast 439 505 27,700 -1,953 Descending New York Center
Thu 01:22:40 PM 40.6814 -73.5894 63° Northeast 447 514 24,200 -1,953 Descending Boston Center
Thu 01:23:40 PM 40.7369 -73.4425 63° Northeast 452 520 22,200 -1,587 Descending Boston Center
Thu 01:24:41 PM 40.7944 -73.3147 59° Northeast 425 489 21,000 -595 Descending Boston Center
Thu 01:25:41 PM 40.8597 -73.2250 46° Northeast 413 475 21,000 -615 Level Boston Center
Thu 01:26:38 PM 40.9667 -73.1053 40° Northeast 413 475 19,800 -1,373 Descending Boston Center
Thu 01:27:39 PM 41.0569 -73.0017 41° Northeast 413 475 18,300 -1,388 Descending Boston Center
Thu 01:28:39 PM 41.1408 -72.9003 42° Northeast 419 482 17,000 -1,388 Descending Boston Center
Thu 01:29:40 PM 41.2181 -72.8072 42° Northeast 405 466 15,500 -984 Descending Boston Center
Thu 01:30:41 PM 41.2872 -72.7275 41° Northeast 374 430 15,000 -252 Descending Boston Center
Thu 01:31:39 PM 41.3914 -72.6586 26° Northeast 367 422 15,000  Level Boston Center
Thu 01:32:39 PM 41.4936 -72.6175 17° North 380 437 15,000  Level Boston Center
Thu 01:33:40 PM 41.6000 -72.5706 18° North 386 444 15,000 -393 Level Boston Center
Thu 01:34:41 PM 41.6833 -72.5094 29° Northeast 368 423 14,200 -1,052 Descending Boston Center
Thu 01:35:17 PM 41.7294 -72.4539 42° Northeast 339 390 13,300 -1,448 Descending Boston Center
Thu 01:35:39 PM 41.7586 -72.4206 40° Northeast 345 397 12,800 -1,367 Descending Boston Center
Thu 01:36:36 PM 41.8294 -72.3425 39° Northeast 361 415 11,500 -1,300 Descending Boston Center
Thu 01:36:39 PM 41.8272 -72.3453 223° Southwest 356 410 11,500 -625 Level Boston Center
Thu 01:37:24 PM 41.8917 -72.2728 40° Northeast 355 409 11,000 -500 Descending Boston Center
Thu 01:37:39 PM 41.9083 -72.2531 41° Northeast 356 410 11,000 -218 Level Boston Center
Thu 01:38:19 PM 41.9542 -72.2028 39° Northeast 330 380 10,800 -689 Descending Boston Center
Thu 01:38:40 PM 41.9708 -72.1803 45° Northeast 342 394 10,300 -1,304 Descending Boston Center
Thu 01:39:28 PM 42.0289 -72.1328 31° Northeast 295 339 9,300 -1,100 Descending Boston Center
Thu 01:39:40 PM 42.0458 -72.1381 347° North 300 345 9,200 -1,745 Descending Boston Center
Thu 01:40:23 PM 42.1042 -72.1631 342° North 296 341 7,700 -1,869 Descending Boston Center
Thu 01:40:41 PM 42.1167 -72.1686 342° North 269 310 7,300 -1,966 Descending Boston Center
Thu 01:41:21 PM 42.1772 -72.1881 347° North 276 318 5,800 -2,172 Descending Boston Center
Thu 01:41:39 PM 42.1981 -72.1711 31° Northeast 277 319 5,200 -774 Descending Boston Center
Thu 01:42:23 PM 42.2250 -72.1206 54° Northeast 256 295 5,000 -194 Descending Boston Center
Thu 01:42:41 PM 42.2311 -72.1008 67° East 229 264 5,000  Level Boston Center
Thu 01:43:18 PM 42.2558 -72.0361 63° Northeast 257 296 5,000  Level Boston Center
Thu 01:44:18 PM 42.2867 -71.9489 64° Northeast 265 305 5,000  Level Boston Center
Thu 01:46:07 PM 42.3500 -71.7833 63° Northeast 264 304 5,000  Level KA90
Thu 01:47:07 PM 42.3833 -71.6833 66° East 261 300 5,000 -200 Level KA90
Thu 01:48:07 PM 42.4167 -71.6333 48° Northeast 174 200 4,600 -950 Descending KA90
Thu 01:49:07 PM 42.4500 -71.6000 36° Northeast 165 190 3,100 -850 Descending KA90
Thu 01:50:07 PM 42.4833 -71.5500 48° Northeast 170 196 2,900 -248 Descending KA90
Thu 01:51:08 PM 42.4833 -71.5000 90° East 144 166 2,600 -250 Descending KA90
Thu 01:52:07 PM 42.5000 -71.4667 56° Northeast 134 154 2,400 -150 Descending KA90
Thu 01:53:08 PM 42.5000 -71.4333 90° East 116 133 2,300 -378 Descending KA90
Thu 01:54:14 PM 42.4833 -71.3833 114° Southeast 131 151 1,600 -720 Descending KA90
Thu 01:55:13 PM 42.4833 -71.3500 90° East 138 159 800 -814 Descending KA90
Thu 01:57:00 PM 42.4667 -71.2833 66° East  Level FlightAware Approximate
Thu 02:04:00 PM 42.4699 -71.2890 66° East  Level Estimated

Login

Don't have an account? Register now (free) for customized features, flight alerts, and more!